Wetterstation Tischlerei-Herzog
Wetterdaten: aktuell Montag, 20.09.2021 22:45
Datum Zeit Temp. N Temp. S Temp. Htte Aussentemp. Temp. Bo Feuchte Htt Luftfeuchte Luftdruck Niederschl. Taupunkt
20.09.2021 22:45 9,3 C 9,6 C 9,5 C 9,3 C 12,7 C 42 % 59 % 1020,6 hPa 0,0 l/m 1,7 C
20.09.2021 21:45 9,4 C 9,9 C 9,7 C 9,4 C 12,8 C 36 % 57 % 1020,6 hPa 0,0 l/m 1,3 C
20.09.2021 20:45 9,8 C 10,3 C 10,2 C 9,8 C 12,8 C 32 % 55 % 1019,5 hPa 0,0 l/m 1,2 C
20.09.2021 19:45 10,4 C 10,7 C 10,6 C 10,4 C 13,0 C 29 % 52 % 1018,4 hPa 0,0 l/m 1,0 C
20.09.2021 18:45 10,8 C 11,3 C 11,2 C 10,8 C 13,0 C 27 % 49 % 1018,3 hPa 0,0 l/m 0,5 C
20.09.2021 17:45 11,7 C 12,1 C 11,8 C 11,7 C 13,0 C 27 % 48 % 1018,1 hPa 0,0 l/m 1,1 C
20.09.2021 16:45 12,1 C 12,0 C 12,3 C 12,0 C 13,0 C 26 % 44 % 1017,1 hPa 0,0 l/m 0,1 C
20.09.2021 15:45 12,8 C 12,7 C 12,7 C 12,7 C 12,8 C 26 % 43 % 1015,9 hPa 0,0 l/m 0,5 C
20.09.2021 14:45 12,6 C 12,3 C 12,2 C 12,3 C 12,7 C 28 % 45 % 1016,0 hPa 0,0 l/m 0,7 C
20.09.2021 13:45 12,2 C 12,6 C 11,8 C 12,2 C 12,5 C 30 % 48 % 1016,0 hPa 0,0 l/m 1,5 C
20.09.2021 12:45 12,0 C 12,4 C 11,9 C 12,0 C 12,3 C 30 % 47 % 1016,0 hPa 0,0 l/m 1,0 C
20.09.2021 11:45 12,7 C 12,5 C 11,8 C 12,5 C 12,1 C 31 % 47 % 1015,9 hPa 0,0 l/m 1,5 C
20.09.2021 10:45 11,0 C 11,3 C 11,0 C 11,0 C 11,9 C 35 % 50 % 1016,2 hPa 0,0 l/m 1,0 C
20.09.2021 09:45 10,1 C 10,2 C 10,0 C 10,1 C 11,8 C 43 % 53 % 1016,3 hPa 0,0 l/m 1,0 C
20.09.2021 08:45 8,7 C 8,7 C 8,5 C 8,7 C 11,8 C 51 % 59 % 1015,5 hPa 0,0 l/m 1,1 C
20.09.2021 07:45 7,9 C 8,0 C 8,0 C 7,9 C 11,9 C 54 % 63 % 1015,6 hPa 0,0 l/m 1,3 C
20.09.2021 06:45 7,6 C 7,9 C 7,9 C 7,6 C 12,0 C 55 % 64 % 1015,7 hPa 0,0 l/m 1,2 C
20.09.2021 05:45 7,5 C 7,8 C 7,8 C 7,5 C 12,1 C 54 % 63 % 1014,6 hPa 0,0 l/m 0,9 C
20.09.2021 04:45 7,3 C 7,6 C 7,6 C 7,3 C 12,2 C 53 % 63 % 1014,7 hPa 0,0 l/m 0,7 C
20.09.2021 03:45 7,0 C 7,7 C 7,5 C 7,0 C 12,4 C 50 % 62 % 1014,7 hPa 0,0 l/m 0,2 C
20.09.2021 02:45 6,8 C 7,4 C 7,4 C 6,8 C 12,6 C 47 % 61 % 1014,7 hPa 0,0 l/m -0,2 C
20.09.2021 01:45 7,2 C 8,0 C 7,8 C 7,2 C 12,8 C 45 % 59 % 1014,7 hPa 0,0 l/m -0,3 C
20.09.2021 00:45 8,3 C 9,1 C 9,1 C 8,3 C 12,9 C 37 % 56 % 1014,5 hPa 0,0 l/m 0,0 C
19.09.2021 23:45 9,2 C 9,5 C 9,3 C 9,2 C 13,0 C 35 % 56 % 1014,4 hPa 0,0 l/m 0,9 C
19.09.2021 23:05 9,2 C 9,6 C 9,4 C 9,2 C 13,0 C 34 % 56 % 1014,4 hPa 0,0 l/m 0,9 C
_ Min-Zeit 01:25 02:45 02:40 01:25 08:05 15:45 16:00 02:15 - 01:25
Minimum _ 6,8 C 7,4 C 7,4 C 6,8 C 11,8 C 26 % 42 % 1013,6 hPa - -0,9 C
_ Max-Zeit 15:25 12:05 15:30 14:15 23:05 06:15 05:15 22:40 23:05 12:20
Maximum _ 13,5 C 13,0 C 12,7 C 12,8 C 13,0 C 55 % 64 % 1020,6 hPa 0,0 l/m 1,9 C
Durchschnitt _ 9,7 C 10,1 C 9,9 C 9,7 C 12,5 C 38 % 54 % 1016,1 hPa #0,0 l/m 0,8 C
Tischlerei Herzog